createdAt,value
2023-04-23T00:00:44.790Z,11.90
2023-04-23T00:03:34.745Z,11.90
2023-04-23T00:06:27.014Z,11.80
2023-04-23T00:09:17.183Z,11.70
2023-04-23T00:12:07.468Z,11.80
2023-04-23T00:14:56.757Z,12.00
2023-04-23T00:17:45.139Z,12.10
2023-04-23T00:20:35.536Z,12.10
2023-04-23T00:23:24.616Z,12.10
2023-04-23T00:26:13.346Z,12.20
2023-04-23T00:29:01.847Z,12.10
2023-04-23T00:31:51.096Z,12.10
2023-04-23T00:34:41.302Z,12.00
2023-04-23T00:37:30.391Z,11.90
2023-04-23T00:40:20.816Z,11.90
2023-04-23T00:43:09.921Z,11.90
2023-04-23T00:45:58.840Z,12.00
2023-04-23T00:48:48.420Z,11.90
2023-04-23T00:51:37.040Z,11.80
2023-04-23T00:54:25.877Z,11.70
2023-04-23T00:57:15.171Z,11.60
2023-04-23T01:00:06.076Z,11.50
2023-04-23T01:02:54.956Z,11.60
2023-04-23T01:05:44.187Z,11.70
2023-04-23T01:08:34.648Z,11.80
2023-04-23T01:11:24.313Z,11.90
2023-04-23T01:14:13.265Z,11.80
2023-04-23T01:17:03.255Z,11.90
2023-04-23T01:19:52.170Z,11.90
2023-04-23T01:22:41.023Z,12.00
2023-04-23T01:25:30.486Z,11.90
2023-04-23T01:28:19.362Z,11.80
2023-04-23T01:31:09.103Z,11.80
2023-04-23T01:33:59.505Z,11.60
2023-04-23T01:36:49.215Z,11.40
2023-04-23T01:39:38.110Z,11.40
2023-04-23T01:42:26.546Z,11.40
2023-04-23T01:45:17.900Z,11.30
2023-04-23T01:48:07.361Z,11.20
2023-04-23T01:50:57.490Z,11.20
2023-04-23T01:53:46.425Z,11.20
2023-04-23T01:56:36.262Z,11.20
2023-04-23T01:59:25.204Z,11.20
2023-04-23T02:02:14.045Z,11.20
2023-04-23T02:05:04.935Z,11.20
2023-04-23T02:07:53.947Z,11.20
2023-04-23T02:10:42.556Z,11.10
2023-04-23T02:13:31.186Z,11.20
2023-04-23T02:16:20.341Z,11.20
2023-04-23T02:19:09.922Z,11.10
2023-04-23T02:21:58.976Z,11.00
2023-04-23T02:24:48.390Z,11.00
2023-04-23T02:27:37.281Z,11.00
2023-04-23T02:30:25.821Z,10.90
2023-04-23T02:33:39.799Z,10.90
2023-04-23T02:36:31.231Z,10.80
2023-04-23T02:39:20.852Z,10.80
2023-04-23T02:42:09.791Z,10.90
2023-04-23T02:44:58.903Z,10.80
2023-04-23T02:47:47.199Z,10.80
2023-04-23T02:50:39.269Z,10.70
2023-04-23T02:53:28.428Z,10.60
2023-04-23T02:56:17.377Z,10.60
2023-04-23T02:59:31.020Z,10.60
2023-04-23T03:02:19.623Z,10.50
2023-04-23T03:05:09.722Z,10.40
2023-04-23T03:07:58.642Z,10.30
2023-04-23T03:10:48.621Z,10.30
2023-04-23T03:13:37.839Z,10.30
2023-04-23T03:16:29.313Z,10.40
2023-04-23T03:19:18.254Z,10.40
2023-04-23T03:22:07.637Z,10.50
2023-04-23T03:24:56.802Z,10.40
2023-04-23T03:27:46.216Z,10.40
2023-04-23T03:30:35.273Z,10.40
2023-04-23T03:33:24.308Z,10.40
2023-04-23T03:36:12.824Z,10.50
2023-04-23T03:39:02.509Z,10.40
2023-04-23T03:42:02.249Z,10.40
2023-04-23T03:44:52.232Z,10.50
2023-04-23T03:47:41.090Z,10.50
2023-04-23T03:50:30.431Z,10.50
2023-04-23T03:53:32.069Z,10.40
2023-04-23T03:56:46.700Z,10.30
2023-04-23T03:59:36.144Z,10.40
2023-04-23T04:02:25.355Z,10.50
2023-04-23T04:05:16.378Z,10.50
2023-04-23T04:08:05.336Z,10.50
2023-04-23T04:10:54.424Z,10.50
2023-04-23T04:13:42.901Z,10.40
2023-04-23T04:16:31.338Z,10.30
2023-04-23T04:19:21.404Z,10.20
2023-04-23T04:22:10.725Z,10.10
2023-04-23T04:25:00.092Z,10.00
2023-04-23T04:27:49.563Z,10.00
2023-04-23T04:30:38.452Z,9.90
2023-04-23T04:33:27.384Z,10.00
2023-04-23T04:36:16.625Z,10.10
2023-04-23T04:39:05.355Z,10.10
2023-04-23T04:41:54.559Z,10.10
2023-04-23T04:44:44.024Z,10.20
2023-04-23T04:47:32.925Z,10.30
2023-04-23T04:50:21.244Z,10.40
2023-04-23T04:53:10.523Z,10.60
2023-04-23T04:55:59.899Z,10.70
2023-04-23T04:58:48.676Z,10.90
2023-04-23T05:01:37.613Z,11.00
2023-04-23T05:04:26.383Z,11.30
2023-04-23T05:07:15.757Z,11.50
2023-04-23T05:10:05.820Z,11.70
2023-04-23T05:12:54.414Z,11.60
2023-04-23T05:15:43.287Z,11.50
2023-04-23T05:18:32.202Z,11.20
2023-04-23T05:21:21.568Z,11.30
2023-04-23T05:24:10.713Z,11.50
2023-04-23T05:26:59.059Z,11.10
2023-04-23T05:29:47.279Z,11.10
2023-04-23T05:32:36.809Z,11.20
2023-04-23T05:35:26.047Z,11.10
2023-04-23T05:38:14.870Z,11.20
2023-04-23T05:41:03.325Z,11.30
2023-04-23T05:43:52.313Z,11.20
2023-04-23T05:46:41.064Z,11.20
2023-04-23T05:49:29.446Z,11.30
2023-04-23T05:52:18.772Z,11.50
2023-04-23T05:55:09.869Z,11.60
2023-04-23T05:57:59.001Z,11.90
2023-04-23T06:00:49.917Z,11.70
2023-04-23T06:03:42.014Z,11.90
2023-04-23T06:06:31.778Z,12.10
2023-04-23T06:09:20.819Z,11.90
2023-04-23T06:12:11.737Z,11.90
2023-04-23T06:15:00.612Z,11.90
2023-04-23T06:17:53.054Z,11.90
2023-04-23T06:20:43.049Z,12.10
2023-04-23T06:23:32.712Z,12.00
2023-04-23T06:26:22.119Z,12.40
2023-04-23T06:29:12.438Z,12.30
2023-04-23T06:32:13.337Z,12.30
2023-04-23T06:35:02.700Z,12.60
2023-04-23T06:37:53.499Z,13.10
2023-04-23T06:40:42.507Z,13.50
2023-04-23T06:43:31.633Z,14.10
2023-04-23T06:46:38.576Z,14.80
2023-04-23T06:49:26.977Z,15.30
2023-04-23T06:52:15.562Z,14.70
2023-04-23T06:55:04.856Z,14.80
2023-04-23T06:57:54.379Z,14.70
2023-04-23T07:00:43.098Z,15.00
2023-04-23T07:03:32.595Z,15.20
2023-04-23T07:06:21.631Z,15.20
2023-04-23T07:09:11.369Z,15.40
2023-04-23T07:12:01.941Z,15.80
2023-04-23T07:14:53.693Z,15.60
2023-04-23T07:17:42.551Z,15.50
2023-04-23T07:20:31.006Z,15.90
2023-04-23T07:23:20.677Z,15.70
2023-04-23T07:26:09.644Z,16.10
2023-04-23T07:28:59.123Z,16.80
2023-04-23T07:31:48.473Z,17.70
2023-04-23T07:34:38.197Z,18.10
2023-04-23T07:37:27.425Z,17.90
2023-04-23T07:40:16.761Z,18.10
2023-04-23T07:43:06.667Z,18.50
2023-04-23T07:45:55.544Z,18.40
2023-04-23T07:48:44.560Z,18.10
2023-04-23T07:51:33.397Z,18.00
2023-04-23T07:54:23.954Z,18.60
2023-04-23T07:57:13.554Z,18.90
2023-04-23T08:00:02.679Z,18.90
2023-04-23T08:03:00.808Z,18.70
2023-04-23T08:05:50.055Z,19.10
2023-04-23T08:08:39.472Z,19.30
2023-04-23T08:11:29.788Z,19.00
2023-04-23T08:14:19.478Z,19.30
2023-04-23T08:17:08.429Z,19.90
2023-04-23T08:19:57.267Z,20.10
2023-04-23T08:22:47.004Z,20.30
2023-04-23T08:25:36.023Z,20.00
2023-04-23T08:28:24.417Z,20.00
2023-04-23T08:31:25.484Z,20.00
2023-04-23T08:34:18.815Z,19.70
2023-04-23T08:37:27.137Z,19.30
2023-04-23T08:40:19.040Z,19.00
2023-04-23T08:43:20.292Z,18.60
2023-04-23T08:46:14.372Z,18.90
2023-04-23T08:49:03.969Z,19.40
2023-04-23T08:52:04.260Z,19.70
2023-04-23T08:55:01.383Z,20.20
2023-04-23T08:57:51.556Z,20.20
2023-04-23T09:00:40.289Z,20.10
2023-04-23T09:03:30.610Z,20.00
2023-04-23T09:06:20.755Z,20.40
2023-04-23T09:09:10.427Z,20.30
2023-04-23T09:11:59.313Z,20.20
2023-04-23T09:14:52.616Z,20.90
2023-04-23T09:17:46.852Z,20.90
2023-04-23T09:20:36.398Z,20.40
2023-04-23T09:23:25.354Z,20.60
2023-04-23T09:26:23.717Z,20.40
2023-04-23T09:29:18.655Z,20.20
2023-04-23T09:32:09.609Z,20.80
2023-04-23T09:34:58.738Z,21.00
2023-04-23T09:37:53.083Z,21.00
2023-04-23T09:40:41.943Z,21.50
2023-04-23T09:43:32.932Z,21.40
2023-04-23T09:46:39.074Z,22.00
2023-04-23T09:49:28.041Z,21.90
2023-04-23T09:52:18.521Z,22.40
2023-04-23T09:55:08.470Z,22.70
2023-04-23T09:57:59.449Z,22.50
2023-04-23T10:00:48.711Z,22.00
2023-04-23T10:03:43.160Z,21.40
2023-04-23T10:06:44.492Z,20.80
2023-04-23T10:09:39.383Z,21.20
2023-04-23T10:12:52.134Z,21.10
2023-04-23T10:15:40.619Z,20.70
2023-04-23T10:18:31.914Z,20.10
2023-04-23T10:21:24.920Z,20.30
2023-04-23T10:24:15.241Z,21.10
2023-04-23T10:27:14.245Z,21.00
2023-04-23T10:30:13.475Z,21.40
2023-04-23T10:33:02.946Z,20.50
2023-04-23T10:35:52.272Z,20.20
2023-04-23T10:38:56.812Z,20.40
2023-04-23T10:41:47.273Z,20.90
2023-04-23T10:47:33.858Z,21.30
2023-04-23T10:50:30.341Z,21.70
2023-04-23T10:53:21.718Z,21.70
2023-04-23T10:56:10.787Z,22.00
2023-04-23T10:58:59.691Z,22.00
2023-04-23T11:01:50.729Z,21.30
2023-04-23T11:04:46.706Z,21.60
2023-04-23T11:07:36.225Z,21.60
2023-04-23T11:10:28.146Z,21.60
2023-04-23T11:13:25.495Z,21.80
2023-04-23T11:16:22.048Z,22.30
2023-04-23T11:19:19.040Z,22.50
2023-04-23T11:22:17.147Z,22.50
2023-04-23T11:25:11.279Z,23.00
2023-04-23T11:28:00.262Z,22.70
2023-04-23T11:30:53.867Z,23.10
2023-04-23T11:33:45.772Z,23.00
2023-04-23T11:36:35.875Z,22.90
2023-04-23T11:39:25.109Z,22.80
2023-04-23T11:42:17.540Z,23.10
2023-04-23T11:45:07.448Z,22.80
2023-04-23T11:48:00.799Z,22.70
2023-04-23T11:50:51.120Z,22.80
2023-04-23T11:53:47.562Z,22.80
2023-04-23T11:56:37.308Z,22.60
2023-04-23T11:59:26.514Z,22.60
2023-04-23T12:02:14.821Z,22.80
2023-04-23T12:05:09.959Z,22.90
2023-04-23T12:08:18.642Z,22.80
2023-04-23T12:11:07.565Z,23.00
2023-04-23T12:13:58.405Z,23.00
2023-04-23T12:16:52.309Z,23.00
2023-04-23T12:19:44.906Z,23.40
2023-04-23T12:22:33.992Z,23.20
2023-04-23T12:25:30.222Z,22.50
2023-04-23T12:28:26.777Z,22.70
2023-04-23T12:31:33.281Z,22.50
2023-04-23T12:34:22.683Z,22.80
2023-04-23T12:37:11.349Z,23.10
2023-04-23T12:40:00.029Z,23.20
2023-04-23T12:42:49.388Z,23.00
2023-04-23T12:45:38.833Z,22.90
2023-04-23T12:48:27.649Z,22.90
2023-04-23T12:51:15.938Z,22.60
2023-04-23T12:54:05.059Z,22.60
2023-04-23T12:56:54.370Z,22.60
2023-04-23T12:59:44.113Z,22.40
2023-04-23T13:02:33.702Z,22.40
2023-04-23T13:05:22.845Z,22.20
2023-04-23T13:08:11.989Z,22.20
2023-04-23T13:11:01.484Z,22.10
2023-04-23T13:13:50.535Z,22.10
2023-04-23T13:16:38.919Z,22.30
2023-04-23T13:19:28.135Z,22.50
2023-04-23T13:22:17.122Z,22.20
2023-04-23T13:25:07.053Z,22.10
2023-04-23T13:27:56.421Z,22.20
2023-04-23T13:30:46.123Z,22.40
2023-04-23T13:33:35.054Z,22.40
2023-04-23T13:36:24.966Z,22.40
2023-04-23T13:39:14.369Z,22.60
2023-04-23T13:42:09.418Z,22.50
2023-04-23T13:44:58.768Z,22.30
2023-04-23T13:47:47.870Z,22.50
2023-04-23T13:50:36.813Z,22.70
2023-04-23T13:53:27.383Z,22.70
2023-04-23T13:56:42.446Z,22.40
2023-04-23T13:59:31.345Z,22.50
2023-04-23T14:02:20.678Z,22.60
2023-04-23T14:05:10.401Z,22.40
2023-04-23T14:07:59.351Z,22.50
2023-04-23T14:10:48.300Z,22.40
2023-04-23T14:13:38.368Z,22.30
2023-04-23T14:16:27.519Z,22.40
2023-04-23T14:19:17.196Z,22.50
2023-04-23T14:22:06.481Z,22.40
2023-04-23T14:25:03.645Z,22.10
2023-04-23T14:27:57.675Z,21.70
2023-04-23T14:30:47.478Z,21.40
2023-04-23T14:33:36.034Z,21.30
2023-04-23T14:36:25.689Z,21.40
2023-04-23T14:39:14.613Z,21.40
2023-04-23T14:42:03.376Z,21.40
2023-04-23T14:44:53.732Z,21.50
2023-04-23T14:47:47.888Z,21.50
2023-04-23T14:50:37.548Z,21.40
2023-04-23T14:53:25.943Z,21.30
2023-04-23T14:56:14.873Z,21.20
2023-04-23T14:59:03.782Z,21.20
2023-04-23T15:01:52.790Z,21.30
2023-04-23T15:04:42.091Z,21.30
2023-04-23T15:07:31.884Z,21.50
2023-04-23T15:10:23.076Z,21.60
2023-04-23T15:13:15.221Z,21.70
2023-04-23T15:16:10.112Z,21.70
2023-04-23T15:19:02.006Z,21.70
2023-04-23T15:21:51.226Z,21.50
2023-04-23T15:24:39.991Z,21.50
2023-04-23T15:27:29.333Z,21.50
2023-04-23T15:30:18.316Z,21.60
2023-04-23T15:33:06.862Z,21.60
2023-04-23T15:35:57.643Z,21.60
2023-04-23T15:38:48.841Z,21.50
2023-04-23T15:41:40.238Z,21.40
2023-04-23T15:44:30.719Z,21.40
2023-04-23T15:47:20.978Z,21.30
2023-04-23T15:50:12.987Z,21.30
2023-04-23T15:53:02.273Z,21.30
2023-04-23T15:55:52.109Z,21.40
2023-04-23T15:58:40.574Z,21.30
2023-04-23T16:01:30.331Z,21.20
2023-04-23T16:04:19.791Z,21.20
2023-04-23T16:07:09.308Z,21.20
2023-04-23T16:09:57.741Z,21.30
2023-04-23T16:12:48.725Z,21.20
2023-04-23T16:15:37.568Z,21.10
2023-04-23T16:18:26.743Z,21.10
2023-04-23T16:21:15.675Z,21.10
2023-04-23T16:24:04.782Z,21.10
2023-04-23T16:26:54.013Z,21.10
2023-04-23T16:29:43.528Z,21.10
2023-04-23T16:32:33.864Z,21.10
2023-04-23T16:35:23.866Z,21.20
2023-04-23T16:38:13.290Z,21.20
2023-04-23T16:41:02.456Z,21.10
2023-04-23T16:43:51.361Z,21.10
2023-04-23T16:46:40.468Z,21.10
2023-04-23T16:49:29.466Z,21.10
2023-04-23T16:52:19.197Z,20.90
2023-04-23T16:55:08.979Z,20.90
2023-04-23T16:57:58.636Z,21.00
2023-04-23T17:00:47.535Z,20.90
2023-04-23T17:03:37.468Z,20.90
2023-04-23T17:06:32.875Z,20.70
2023-04-23T17:09:21.556Z,20.30
2023-04-23T17:12:09.920Z,20.00
2023-04-23T17:14:58.945Z,19.80
2023-04-23T17:17:48.142Z,19.80
2023-04-23T17:20:36.525Z,19.70
2023-04-23T17:23:28.851Z,19.40
2023-04-23T17:26:17.799Z,19.20
2023-04-23T17:29:07.555Z,19.00
2023-04-23T17:31:56.401Z,18.80
2023-04-23T17:34:49.465Z,18.70
2023-04-23T17:37:42.500Z,18.60
2023-04-23T17:40:31.022Z,18.50
2023-04-23T17:43:20.456Z,18.30
2023-04-23T17:46:09.247Z,18.20
2023-04-23T17:48:58.503Z,18.10
2023-04-23T17:51:47.498Z,18.00
2023-04-23T17:54:37.020Z,17.90
2023-04-23T17:57:26.233Z,17.80
2023-04-23T18:00:17.515Z,17.70
2023-04-23T18:03:07.580Z,17.60
2023-04-23T18:05:56.968Z,17.50
2023-04-23T18:08:47.558Z,17.50
2023-04-23T18:11:38.044Z,17.40
2023-04-23T18:14:26.928Z,17.30
2023-04-23T18:17:17.616Z,17.20
2023-04-23T18:20:11.444Z,17.10
2023-04-23T18:23:01.012Z,17.00
2023-04-23T18:25:49.930Z,17.00
2023-04-23T18:28:39.133Z,16.90
2023-04-23T18:31:28.585Z,16.70
2023-04-23T18:34:20.613Z,16.60
2023-04-23T18:37:36.936Z,16.50
2023-04-23T18:40:26.060Z,16.40
2023-04-23T18:43:14.897Z,16.30
2023-04-23T18:46:04.184Z,16.20
2023-04-23T18:49:26.638Z,16.20
2023-04-23T18:52:15.932Z,16.20
2023-04-23T18:55:04.851Z,16.20
2023-04-23T18:57:56.303Z,16.20
2023-04-23T19:00:45.182Z,16.20
2023-04-23T19:03:34.150Z,16.10
2023-04-23T19:06:23.523Z,16.00
2023-04-23T19:09:12.296Z,15.80
2023-04-23T19:12:01.898Z,15.70
2023-04-23T19:14:51.172Z,15.60
2023-04-23T19:17:40.361Z,15.50
2023-04-23T19:20:31.065Z,15.40
2023-04-23T19:23:20.538Z,15.10
2023-04-23T19:26:10.203Z,14.80
2023-04-23T19:28:59.407Z,14.70
2023-04-23T19:31:48.697Z,14.50
2023-04-23T19:34:37.570Z,14.50
2023-04-23T19:37:26.571Z,14.50
2023-04-23T19:40:16.016Z,14.50
2023-04-23T19:43:04.842Z,14.60
2023-04-23T19:45:53.847Z,14.50
2023-04-23T19:48:42.682Z,14.40
2023-04-23T19:51:35.818Z,14.20
2023-04-23T19:54:24.845Z,14.00
2023-04-23T19:57:14.124Z,14.00
2023-04-23T20:00:30.824Z,14.00
2023-04-23T20:03:20.241Z,14.00
2023-04-23T20:06:09.281Z,14.00
2023-04-23T20:09:07.343Z,13.90
2023-04-23T20:11:56.874Z,13.90
2023-04-23T20:14:45.689Z,13.90
2023-04-23T20:17:34.989Z,13.70
2023-04-23T20:20:25.756Z,13.60
2023-04-23T20:23:14.039Z,13.40
2023-04-23T20:26:02.877Z,13.50
2023-04-23T20:28:51.841Z,13.40
2023-04-23T20:31:40.824Z,13.30
2023-04-23T20:34:29.434Z,13.30
2023-04-23T20:37:22.016Z,13.40
2023-04-23T20:40:11.254Z,13.40
2023-04-23T20:43:01.530Z,13.30
2023-04-23T20:45:52.655Z,13.20
2023-04-23T20:48:43.573Z,13.10
2023-04-23T20:51:35.783Z,13.00
2023-04-23T20:54:24.691Z,13.00
2023-04-23T20:57:13.600Z,13.00
2023-04-23T21:00:04.597Z,13.00
2023-04-23T21:02:54.616Z,13.00
2023-04-23T21:05:44.769Z,13.00
2023-04-23T21:08:33.750Z,13.00
2023-04-23T21:11:24.972Z,12.90
2023-04-23T21:14:13.618Z,12.80
2023-04-23T21:17:02.737Z,12.70
2023-04-23T21:19:51.904Z,12.70
2023-04-23T21:22:41.646Z,12.70
2023-04-23T21:25:33.945Z,12.70
2023-04-23T21:28:22.577Z,12.70
2023-04-23T21:31:17.783Z,12.70
2023-04-23T21:34:06.620Z,12.70
2023-04-23T21:36:55.936Z,12.70
2023-04-23T21:39:44.634Z,12.70
2023-04-23T21:42:34.106Z,12.50
2023-04-23T21:45:22.673Z,12.30
2023-04-23T21:48:36.730Z,12.20
2023-04-23T21:51:54.607Z,12.00
2023-04-23T21:54:43.463Z,12.00
2023-04-23T21:57:33.342Z,12.10
2023-04-23T22:00:23.846Z,12.20
2023-04-23T22:03:17.829Z,12.20
2023-04-23T22:06:23.340Z,12.20
2023-04-23T22:09:13.877Z,12.10
2023-04-23T22:12:02.979Z,12.00
2023-04-23T22:14:51.908Z,12.00
2023-04-23T22:17:42.636Z,12.00
2023-04-23T22:20:31.694Z,12.00
2023-04-23T22:23:21.791Z,11.90
2023-04-23T22:26:11.129Z,11.80
2023-04-23T22:29:00.183Z,11.70
2023-04-23T22:31:49.135Z,11.60
2023-04-23T22:34:40.536Z,11.60
2023-04-23T22:37:30.044Z,11.50
2023-04-23T22:40:19.511Z,11.50
2023-04-23T22:43:08.907Z,11.50
2023-04-23T22:45:57.305Z,11.40
2023-04-23T22:48:47.839Z,11.30
2023-04-23T22:51:38.825Z,11.30
2023-04-23T22:54:28.105Z,11.40
2023-04-23T22:57:17.694Z,11.50
2023-04-23T23:00:11.395Z,11.50
2023-04-23T23:02:59.847Z,11.40
2023-04-23T23:05:48.705Z,11.40
2023-04-23T23:08:38.074Z,11.30
2023-04-23T23:11:30.615Z,11.30
2023-04-23T23:14:19.845Z,11.20
2023-04-23T23:17:08.581Z,11.30
2023-04-23T23:19:57.436Z,11.30
2023-04-23T23:22:46.960Z,11.20
2023-04-23T23:25:38.522Z,11.10
2023-04-23T23:28:26.999Z,11.00
2023-04-23T23:31:16.460Z,11.00
2023-04-23T23:34:05.408Z,10.90
2023-04-23T23:36:54.162Z,11.00
2023-04-23T23:39:43.049Z,11.00
2023-04-23T23:42:32.005Z,11.00
2023-04-23T23:45:21.062Z,11.00
2023-04-23T23:48:10.737Z,11.10
2023-04-23T23:50:59.164Z,11.20
2023-04-23T23:53:47.839Z,11.30
2023-04-23T23:56:36.761Z,11.30
2023-04-23T23:59:25.985Z,11.20
